sensor_id;sensor_type;location;lat;lon;timestamp;temperature;humidity
36924;DHT22;22841;50.252;18.688;2023-03-14T00:01:18;7.00;99.90
36924;DHT22;22841;50.252;18.688;2023-03-14T00:03:46;7.00;99.90
36924;DHT22;22841;50.252;18.688;2023-03-14T00:06:13;7.20;99.90
36924;DHT22;22841;50.252;18.688;2023-03-14T00:08:40;7.40;99.90
36924;DHT22;22841;50.252;18.688;2023-03-14T00:11:13;7.60;99.90
36924;DHT22;22841;50.252;18.688;2023-03-14T00:13:39;7.80;99.90
36924;DHT22;22841;50.252;18.688;2023-03-14T00:16:08;7.80;99.90
36924;DHT22;22841;50.252;18.688;2023-03-14T00:18:35;7.90;99.90
36924;DHT22;22841;50.252;18.688;2023-03-14T00:21:03;8.10;99.90
36924;DHT22;22841;50.252;18.688;2023-03-14T00:23:30;8.10;99.90
36924;DHT22;22841;50.252;18.688;2023-03-14T00:26:01;8.10;99.90
36924;DHT22;22841;50.252;18.688;2023-03-14T00:28:28;8.10;99.90
36924;DHT22;22841;50.252;18.688;2023-03-14T00:30:54;8.20;99.90
36924;DHT22;22841;50.252;18.688;2023-03-14T00:33:21;8.30;99.90
36924;DHT22;22841;50.252;18.688;2023-03-14T00:36:02;8.40;99.90
36924;DHT22;22841;50.252;18.688;2023-03-14T00:38:30;8.50;99.90
36924;DHT22;22841;50.252;18.688;2023-03-14T00:40:56;8.60;99.90
36924;DHT22;22841;50.252;18.688;2023-03-14T00:43:23;8.70;99.90
36924;DHT22;22841;50.252;18.688;2023-03-14T00:45:49;8.60;99.90
36924;DHT22;22841;50.252;18.688;2023-03-14T00:48:16;8.60;99.90
36924;DHT22;22841;50.252;18.688;2023-03-14T00:50:42;8.60;99.90
36924;DHT22;22841;50.252;18.688;2023-03-14T00:53:09;8.60;99.90
36924;DHT22;22841;50.252;18.688;2023-03-14T00:55:39;8.50;99.90
36924;DHT22;22841;50.252;18.688;2023-03-14T00:58:06;8.50;99.90
36924;DHT22;22841;50.252;18.688;2023-03-14T01:00:32;8.60;99.90
36924;DHT22;22841;50.252;18.688;2023-03-14T01:02:58;8.50;99.90
36924;DHT22;22841;50.252;18.688;2023-03-14T01:05:25;8.50;99.90
36924;DHT22;22841;50.252;18.688;2023-03-14T01:07:51;8.50;99.90
36924;DHT22;22841;50.252;18.688;2023-03-14T01:10:17;8.60;99.90
36924;DHT22;22841;50.252;18.688;2023-03-14T01:12:43;8.60;99.90
36924;DHT22;22841;50.252;18.688;2023-03-14T01:15:09;8.80;99.90
36924;DHT22;22841;50.252;18.688;2023-03-14T01:17:36;8.80;99.90
36924;DHT22;22841;50.252;18.688;2023-03-14T01:20:04;8.90;99.90
36924;DHT22;22841;50.252;18.688;2023-03-14T01:22:35;8.90;99.90
36924;DHT22;22841;50.252;18.688;2023-03-14T01:25:02;9.00;99.90
36924;DHT22;22841;50.252;18.688;2023-03-14T01:27:28;9.00;99.90
36924;DHT22;22841;50.252;18.688;2023-03-14T01:29:54;9.00;99.90
36924;DHT22;22841;50.252;18.688;2023-03-14T01:32:20;9.00;99.90
36924;DHT22;22841;50.252;18.688;2023-03-14T01:34:46;9.00;99.90
36924;DHT22;22841;50.252;18.688;2023-03-14T01:37:12;8.90;99.90
36924;DHT22;22841;50.252;18.688;2023-03-14T01:39:38;8.90;99.90
36924;DHT22;22841;50.252;18.688;2023-03-14T01:42:04;8.90;99.90
36924;DHT22;22841;50.252;18.688;2023-03-14T01:45:52;8.90;99.90
36924;DHT22;22841;50.252;18.688;2023-03-14T01:47:52;8.90;99.90
36924;DHT22;22841;50.252;18.688;2023-03-14T01:50:18;8.80;99.90
36924;DHT22;22841;50.252;18.688;2023-03-14T01:52:46;8.80;99.90
36924;DHT22;22841;50.252;18.688;2023-03-14T01:55:19;8.70;99.90
36924;DHT22;22841;50.252;18.688;2023-03-14T01:58:02;8.90;99.90
36924;DHT22;22841;50.252;18.688;2023-03-14T02:00:29;9.10;99.90
36924;DHT22;22841;50.252;18.688;2023-03-14T02:02:58;9.30;99.90
36924;DHT22;22841;50.252;18.688;2023-03-14T02:05:32;9.30;99.90
36924;DHT22;22841;50.252;18.688;2023-03-14T02:08:01;9.30;99.90
36924;DHT22;22841;50.252;18.688;2023-03-14T02:10:31;9.30;99.90
36924;DHT22;22841;50.252;18.688;2023-03-14T02:13:01;9.30;99.90
36924;DHT22;22841;50.252;18.688;2023-03-14T02:15:28;9.20;99.90
36924;DHT22;22841;50.252;18.688;2023-03-14T02:17:54;9.30;99.90
36924;DHT22;22841;50.252;18.688;2023-03-14T02:23:26;9.30;99.90
36924;DHT22;22841;50.252;18.688;2023-03-14T02:26:02;9.40;99.90
36924;DHT22;22841;50.252;18.688;2023-03-14T02:28:29;9.40;99.90
36924;DHT22;22841;50.252;18.688;2023-03-14T02:30:55;9.30;99.90
36924;DHT22;22841;50.252;18.688;2023-03-14T02:33:22;9.30;99.90
36924;DHT22;22841;50.252;18.688;2023-03-14T02:35:59;9.20;99.90
36924;DHT22;22841;50.252;18.688;2023-03-14T02:38:37;9.10;99.90
36924;DHT22;22841;50.252;18.688;2023-03-14T02:41:07;9.00;99.90
36924;DHT22;22841;50.252;18.688;2023-03-14T02:43:33;9.00;99.90
36924;DHT22;22841;50.252;18.688;2023-03-14T02:46:00;8.90;99.90
36924;DHT22;22841;50.252;18.688;2023-03-14T02:48:38;8.90;99.90
36924;DHT22;22841;50.252;18.688;2023-03-14T02:51:06;8.70;99.90
36924;DHT22;22841;50.252;18.688;2023-03-14T02:53:34;8.60;99.90
36924;DHT22;22841;50.252;18.688;2023-03-14T02:56:00;8.60;99.90
36924;DHT22;22841;50.252;18.688;2023-03-14T02:58:27;8.60;99.90
36924;DHT22;22841;50.252;18.688;2023-03-14T03:00:53;8.50;99.90
36924;DHT22;22841;50.252;18.688;2023-03-14T03:03:20;8.40;99.90
36924;DHT22;22841;50.252;18.688;2023-03-14T03:05:53;8.40;99.90
36924;DHT22;22841;50.252;18.688;2023-03-14T03:08:21;8.40;99.90
36924;DHT22;22841;50.252;18.688;2023-03-14T03:10:48;8.30;99.90
36924;DHT22;22841;50.252;18.688;2023-03-14T03:13:14;8.30;99.90
36924;DHT22;22841;50.252;18.688;2023-03-14T03:15:40;8.20;99.90
36924;DHT22;22841;50.252;18.688;2023-03-14T03:18:07;8.30;99.90
36924;DHT22;22841;50.252;18.688;2023-03-14T03:20:33;8.20;99.90
36924;DHT22;22841;50.252;18.688;2023-03-14T03:23:00;8.20;99.90
36924;DHT22;22841;50.252;18.688;2023-03-14T03:25:26;8.20;99.90
36924;DHT22;22841;50.252;18.688;2023-03-14T03:27:53;8.30;99.90
36924;DHT22;22841;50.252;18.688;2023-03-14T03:30:20;8.40;99.90
36924;DHT22;22841;50.252;18.688;2023-03-14T03:32:46;8.40;99.90
36924;DHT22;22841;50.252;18.688;2023-03-14T03:35:12;8.50;99.90
36924;DHT22;22841;50.252;18.688;2023-03-14T03:37:39;8.50;99.90
36924;DHT22;22841;50.252;18.688;2023-03-14T03:40:06;8.60;99.90
36924;DHT22;22841;50.252;18.688;2023-03-14T03:42:33;8.60;99.90
36924;DHT22;22841;50.252;18.688;2023-03-14T03:45:00;8.50;99.90
36924;DHT22;22841;50.252;18.688;2023-03-14T03:47:27;8.40;99.90
36924;DHT22;22841;50.252;18.688;2023-03-14T03:49:53;8.40;99.90
36924;DHT22;22841;50.252;18.688;2023-03-14T03:52:19;8.40;99.90
36924;DHT22;22841;50.252;18.688;2023-03-14T03:54:46;8.20;99.90
36924;DHT22;22841;50.252;18.688;2023-03-14T03:57:12;8.20;99.90
36924;DHT22;22841;50.252;18.688;2023-03-14T03:59:38;8.10;99.90
36924;DHT22;22841;50.252;18.688;2023-03-14T04:02:06;8.00;99.90
36924;DHT22;22841;50.252;18.688;2023-03-14T04:04:32;7.90;99.90
36924;DHT22;22841;50.252;18.688;2023-03-14T04:06:58;7.70;99.90
36924;DHT22;22841;50.252;18.688;2023-03-14T04:09:24;7.70;99.90
36924;DHT22;22841;50.252;18.688;2023-03-14T04:11:50;7.60;99.90
36924;DHT22;22841;50.252;18.688;2023-03-14T04:14:17;7.50;99.90
36924;DHT22;22841;50.252;18.688;2023-03-14T04:16:43;7.50;99.90
36924;DHT22;22841;50.252;18.688;2023-03-14T04:19:09;7.50;99.90
36924;DHT22;22841;50.252;18.688;2023-03-14T04:21:35;7.40;99.90
36924;DHT22;22841;50.252;18.688;2023-03-14T04:24:01;7.40;99.90
36924;DHT22;22841;50.252;18.688;2023-03-14T04:26:27;7.30;99.90
36924;DHT22;22841;50.252;18.688;2023-03-14T04:28:53;7.30;99.90
36924;DHT22;22841;50.252;18.688;2023-03-14T04:31:21;7.30;99.90
36924;DHT22;22841;50.252;18.688;2023-03-14T04:33:47;7.20;99.90
36924;DHT22;22841;50.252;18.688;2023-03-14T04:36:13;7.10;99.90
36924;DHT22;22841;50.252;18.688;2023-03-14T04:38:40;7.00;99.90
36924;DHT22;22841;50.252;18.688;2023-03-14T04:41:06;7.00;99.90
36924;DHT22;22841;50.252;18.688;2023-03-14T04:43:32;7.00;99.90
36924;DHT22;22841;50.252;18.688;2023-03-14T04:45:59;7.00;99.90
36924;DHT22;22841;50.252;18.688;2023-03-14T04:48:26;6.90;99.90
36924;DHT22;22841;50.252;18.688;2023-03-14T04:50:52;6.90;99.90
36924;DHT22;22841;50.252;18.688;2023-03-14T04:53:19;6.90;99.90
36924;DHT22;22841;50.252;18.688;2023-03-14T04:55:53;6.80;99.90
36924;DHT22;22841;50.252;18.688;2023-03-14T04:58:20;6.80;99.90
36924;DHT22;22841;50.252;18.688;2023-03-14T05:00:47;6.80;99.90
36924;DHT22;22841;50.252;18.688;2023-03-14T05:03:15;6.70;99.90
36924;DHT22;22841;50.252;18.688;2023-03-14T05:05:41;6.70;99.90
36924;DHT22;22841;50.252;18.688;2023-03-14T05:08:08;6.70;99.90
36924;DHT22;22841;50.252;18.688;2023-03-14T05:10:34;6.70;99.90
36924;DHT22;22841;50.252;18.688;2023-03-14T05:13:00;6.70;99.90
36924;DHT22;22841;50.252;18.688;2023-03-14T05:15:26;6.60;99.90
36924;DHT22;22841;50.252;18.688;2023-03-14T05:17:53;6.60;99.90
36924;DHT22;22841;50.252;18.688;2023-03-14T05:20:20;6.50;99.90
36924;DHT22;22841;50.252;18.688;2023-03-14T05:22:47;6.60;99.90
36924;DHT22;22841;50.252;18.688;2023-03-14T05:25:13;6.60;99.90
36924;DHT22;22841;50.252;18.688;2023-03-14T05:27:39;6.50;99.90
36924;DHT22;22841;50.252;18.688;2023-03-14T05:30:05;6.40;99.90
36924;DHT22;22841;50.252;18.688;2023-03-14T05:32:32;6.40;99.90
36924;DHT22;22841;50.252;18.688;2023-03-14T05:34:58;6.50;99.90
36924;DHT22;22841;50.252;18.688;2023-03-14T05:37:26;6.50;99.90
36924;DHT22;22841;50.252;18.688;2023-03-14T05:39:52;6.50;99.90
36924;DHT22;22841;50.252;18.688;2023-03-14T05:42:18;6.50;99.90
36924;DHT22;22841;50.252;18.688;2023-03-14T05:44:44;6.50;99.90
36924;DHT22;22841;50.252;18.688;2023-03-14T05:47:10;6.50;99.90
36924;DHT22;22841;50.252;18.688;2023-03-14T05:49:36;6.50;99.90
36924;DHT22;22841;50.252;18.688;2023-03-14T05:52:02;6.40;99.90
36924;DHT22;22841;50.252;18.688;2023-03-14T05:54:28;6.50;99.90
36924;DHT22;22841;50.252;18.688;2023-03-14T05:56:55;6.50;99.90
36924;DHT22;22841;50.252;18.688;2023-03-14T05:59:21;6.50;99.90
36924;DHT22;22841;50.252;18.688;2023-03-14T06:01:47;6.50;99.90
36924;DHT22;22841;50.252;18.688;2023-03-14T06:04:13;6.50;99.90
36924;DHT22;22841;50.252;18.688;2023-03-14T06:06:39;6.60;99.90
36924;DHT22;22841;50.252;18.688;2023-03-14T06:09:05;6.70;99.90
36924;DHT22;22841;50.252;18.688;2023-03-14T06:11:31;6.90;99.90
36924;DHT22;22841;50.252;18.688;2023-03-14T06:13:57;7.00;99.90
36924;DHT22;22841;50.252;18.688;2023-03-14T06:16:23;7.10;99.90
36924;DHT22;22841;50.252;18.688;2023-03-14T06:18:49;7.30;99.90
36924;DHT22;22841;50.252;18.688;2023-03-14T06:21:15;7.30;99.90
36924;DHT22;22841;50.252;18.688;2023-03-14T06:23:42;7.40;99.90
36924;DHT22;22841;50.252;18.688;2023-03-14T06:26:08;7.40;99.90
36924;DHT22;22841;50.252;18.688;2023-03-14T06:28:34;7.40;99.90
36924;DHT22;22841;50.252;18.688;2023-03-14T06:31:00;7.50;99.90
36924;DHT22;22841;50.252;18.688;2023-03-14T06:33:26;7.60;99.90
36924;DHT22;22841;50.252;18.688;2023-03-14T06:35:52;7.70;99.90
36924;DHT22;22841;50.252;18.688;2023-03-14T06:38:18;7.80;99.90
36924;DHT22;22841;50.252;18.688;2023-03-14T06:40:44;7.90;99.90
36924;DHT22;22841;50.252;18.688;2023-03-14T06:43:10;8.00;99.90
36924;DHT22;22841;50.252;18.688;2023-03-14T06:45:36;8.20;99.90
36924;DHT22;22841;50.252;18.688;2023-03-14T06:48:05;8.30;99.90
36924;DHT22;22841;50.252;18.688;2023-03-14T06:50:31;8.40;99.90
36924;DHT22;22841;50.252;18.688;2023-03-14T06:52:57;8.40;99.90
36924;DHT22;22841;50.252;18.688;2023-03-14T06:55:23;8.40;99.90
36924;DHT22;22841;50.252;18.688;2023-03-14T06:57:49;8.60;99.90
36924;DHT22;22841;50.252;18.688;2023-03-14T07:00:15;8.50;99.90
36924;DHT22;22841;50.252;18.688;2023-03-14T07:02:42;8.60;99.90
36924;DHT22;22841;50.252;18.688;2023-03-14T07:05:08;8.60;99.90
36924;DHT22;22841;50.252;18.688;2023-03-14T07:07:36;8.70;99.90
36924;DHT22;22841;50.252;18.688;2023-03-14T07:10:02;8.80;99.90
36924;DHT22;22841;50.252;18.688;2023-03-14T07:12:28;8.90;99.90
36924;DHT22;22841;50.252;18.688;2023-03-14T07:14:54;9.00;99.90
36924;DHT22;22841;50.252;18.688;2023-03-14T07:17:20;9.10;99.90
36924;DHT22;22841;50.252;18.688;2023-03-14T07:19:46;9.10;99.90
36924;DHT22;22841;50.252;18.688;2023-03-14T07:22:12;9.20;99.90
36924;DHT22;22841;50.252;18.688;2023-03-14T07:24:38;9.20;99.90
36924;DHT22;22841;50.252;18.688;2023-03-14T07:27:04;9.30;99.90
36924;DHT22;22841;50.252;18.688;2023-03-14T07:29:30;9.30;99.90
36924;DHT22;22841;50.252;18.688;2023-03-14T07:31:57;9.40;99.90
36924;DHT22;22841;50.252;18.688;2023-03-14T07:34:23;9.40;99.90
36924;DHT22;22841;50.252;18.688;2023-03-14T07:36:49;9.40;99.90
36924;DHT22;22841;50.252;18.688;2023-03-14T07:39:15;9.40;99.90
36924;DHT22;22841;50.252;18.688;2023-03-14T07:41:41;9.50;99.90
36924;DHT22;22841;50.252;18.688;2023-03-14T07:44:07;9.50;99.90
36924;DHT22;22841;50.252;18.688;2023-03-14T07:46:33;9.50;99.90
36924;DHT22;22841;50.252;18.688;2023-03-14T07:49:00;9.60;99.90
36924;DHT22;22841;50.252;18.688;2023-03-14T07:51:26;9.70;99.90
36924;DHT22;22841;50.252;18.688;2023-03-14T07:53:52;9.80;99.90
36924;DHT22;22841;50.252;18.688;2023-03-14T07:56:18;9.90;99.90
36924;DHT22;22841;50.252;18.688;2023-03-14T07:58:44;10.00;99.90
36924;DHT22;22841;50.252;18.688;2023-03-14T08:01:10;10.20;99.90
36924;DHT22;22841;50.252;18.688;2023-03-14T08:03:36;10.30;99.90
36924;DHT22;22841;50.252;18.688;2023-03-14T08:06:02;10.40;99.90
36924;DHT22;22841;50.252;18.688;2023-03-14T08:08:28;10.40;99.90
36924;DHT22;22841;50.252;18.688;2023-03-14T08:10:54;10.60;99.90
36924;DHT22;22841;50.252;18.688;2023-03-14T08:13:20;10.60;99.90
36924;DHT22;22841;50.252;18.688;2023-03-14T08:15:48;10.60;99.90
36924;DHT22;22841;50.252;18.688;2023-03-14T08:18:15;10.60;99.90
36924;DHT22;22841;50.252;18.688;2023-03-14T08:20:41;10.80;99.90
36924;DHT22;22841;50.252;18.688;2023-03-14T08:23:07;11.00;99.90
36924;DHT22;22841;50.252;18.688;2023-03-14T08:25:33;11.10;99.90
36924;DHT22;22841;50.252;18.688;2023-03-14T08:27:59;11.30;99.90
36924;DHT22;22841;50.252;18.688;2023-03-14T08:30:26;11.40;99.90
36924;DHT22;22841;50.252;18.688;2023-03-14T08:32:52;11.60;99.90
36924;DHT22;22841;50.252;18.688;2023-03-14T08:35:18;11.60;99.90
36924;DHT22;22841;50.252;18.688;2023-03-14T08:37:44;11.70;99.90
36924;DHT22;22841;50.252;18.688;2023-03-14T08:40:11;11.70;99.90
36924;DHT22;22841;50.252;18.688;2023-03-14T08:42:39;11.70;99.90
36924;DHT22;22841;50.252;18.688;2023-03-14T08:45:07;11.60;99.90
36924;DHT22;22841;50.252;18.688;2023-03-14T08:47:34;11.60;99.90
36924;DHT22;22841;50.252;18.688;2023-03-14T08:50:00;11.60;99.90
36924;DHT22;22841;50.252;18.688;2023-03-14T08:52:26;11.50;99.90
36924;DHT22;22841;50.252;18.688;2023-03-14T08:54:52;11.50;99.90
36924;DHT22;22841;50.252;18.688;2023-03-14T08:57:18;11.50;99.90
36924;DHT22;22841;50.252;18.688;2023-03-14T08:59:45;11.50;99.90
36924;DHT22;22841;50.252;18.688;2023-03-14T09:02:11;11.50;99.90
36924;DHT22;22841;50.252;18.688;2023-03-14T09:04:37;11.60;99.90
36924;DHT22;22841;50.252;18.688;2023-03-14T09:07:04;11.50;99.90
36924;DHT22;22841;50.252;18.688;2023-03-14T09:09:31;11.60;99.90
36924;DHT22;22841;50.252;18.688;2023-03-14T09:11:57;11.70;99.90
36924;DHT22;22841;50.252;18.688;2023-03-14T09:14:23;11.70;99.90
36924;DHT22;22841;50.252;18.688;2023-03-14T09:16:49;11.80;99.90
36924;DHT22;22841;50.252;18.688;2023-03-14T09:19:16;11.80;99.90
36924;DHT22;22841;50.252;18.688;2023-03-14T09:21:43;11.80;99.90
36924;DHT22;22841;50.252;18.688;2023-03-14T09:24:10;11.90;99.90
36924;DHT22;22841;50.252;18.688;2023-03-14T09:26:36;11.80;99.90
36924;DHT22;22841;50.252;18.688;2023-03-14T09:29:02;11.90;99.90
36924;DHT22;22841;50.252;18.688;2023-03-14T09:31:28;11.80;99.90
36924;DHT22;22841;50.252;18.688;2023-03-14T09:33:55;11.90;99.90
36924;DHT22;22841;50.252;18.688;2023-03-14T09:36:22;12.00;99.90
36924;DHT22;22841;50.252;18.688;2023-03-14T09:38:48;12.10;99.90
36924;DHT22;22841;50.252;18.688;2023-03-14T09:41:31;12.20;99.90
36924;DHT22;22841;50.252;18.688;2023-03-14T09:46:38;12.40;99.90
36924;DHT22;22841;50.252;18.688;2023-03-14T09:49:11;12.50;99.90
36924;DHT22;22841;50.252;18.688;2023-03-14T09:51:38;12.50;99.90
36924;DHT22;22841;50.252;18.688;2023-03-14T09:54:05;12.50;99.90
36924;DHT22;22841;50.252;18.688;2023-03-14T09:56:32;12.40;99.90
36924;DHT22;22841;50.252;18.688;2023-03-14T09:59:02;12.40;99.90
36924;DHT22;22841;50.252;18.688;2023-03-14T10:01:31;12.30;99.90
36924;DHT22;22841;50.252;18.688;2023-03-14T10:04:00;12.20;99.90
36924;DHT22;22841;50.252;18.688;2023-03-14T10:06:30;12.10;99.90
36924;DHT22;22841;50.252;18.688;2023-03-14T10:08:57;12.00;99.90
36924;DHT22;22841;50.252;18.688;2023-03-14T10:11:24;11.90;99.90
36924;DHT22;22841;50.252;18.688;2023-03-14T10:16:37;11.70;99.90
36924;DHT22;22841;50.252;18.688;2023-03-14T10:19:14;11.60;99.90
36924;DHT22;22841;50.252;18.688;2023-03-14T10:21:50;11.60;99.90
36924;DHT22;22841;50.252;18.688;2023-03-14T10:24:26;11.50;99.90
36924;DHT22;22841;50.252;18.688;2023-03-14T10:26:55;11.60;99.90
36924;DHT22;22841;50.252;18.688;2023-03-14T10:29:21;11.60;99.90
36924;DHT22;22841;50.252;18.688;2023-03-14T10:32:06;11.60;99.90
36924;DHT22;22841;50.252;18.688;2023-03-14T10:34:37;11.50;99.90
36924;DHT22;22841;50.252;18.688;2023-03-14T10:37:23;11.40;99.90
36924;DHT22;22841;50.252;18.688;2023-03-14T10:39:53;11.40;99.90
36924;DHT22;22841;50.252;18.688;2023-03-14T10:42:30;11.30;99.90
36924;DHT22;22841;50.252;18.688;2023-03-14T10:45:06;11.40;99.90
36924;DHT22;22841;50.252;18.688;2023-03-14T10:47:49;11.40;99.90
36924;DHT22;22841;50.252;18.688;2023-03-14T10:50:27;11.50;99.90
36924;DHT22;22841;50.252;18.688;2023-03-14T10:52:55;11.40;99.90
36924;DHT22;22841;50.252;18.688;2023-03-14T10:55:24;11.50;99.90
36924;DHT22;22841;50.252;18.688;2023-03-14T10:57:50;11.40;99.90
36924;DHT22;22841;50.252;18.688;2023-03-14T11:00:22;11.40;99.90
36924;DHT22;22841;50.252;18.688;2023-03-14T11:03:08;11.40;99.90
36924;DHT22;22841;50.252;18.688;2023-03-14T11:08:11;11.30;99.90
36924;DHT22;22841;50.252;18.688;2023-03-14T11:10:41;11.20;99.90
36924;DHT22;22841;50.252;18.688;2023-03-14T11:13:27;11.10;99.90
36924;DHT22;22841;50.252;18.688;2023-03-14T11:16:14;11.10;99.90
36924;DHT22;22841;50.252;18.688;2023-03-14T11:19:08;11.10;99.90
36924;DHT22;22841;50.252;18.688;2023-03-14T11:24:21;11.10;99.90
36924;DHT22;22841;50.252;18.688;2023-03-14T11:26:59;11.00;99.90
36924;DHT22;22841;50.252;18.688;2023-03-14T11:29:33;11.00;99.90
36924;DHT22;22841;50.252;18.688;2023-03-14T11:32:11;11.00;99.90
36924;DHT22;22841;50.252;18.688;2023-03-14T11:34:53;10.90;99.90
36924;DHT22;22841;50.252;18.688;2023-03-14T11:37:27;10.90;99.90
36924;DHT22;22841;50.252;18.688;2023-03-14T11:40:20;10.90;99.90
36924;DHT22;22841;50.252;18.688;2023-03-14T11:45:38;10.80;99.90
36924;DHT22;22841;50.252;18.688;2023-03-14T11:50:42;10.70;99.90
36924;DHT22;22841;50.252;18.688;2023-03-14T11:55:40;10.60;99.90
36924;DHT22;22841;50.252;18.688;2023-03-14T11:58:23;10.60;99.90
36924;DHT22;22841;50.252;18.688;2023-03-14T12:00:53;10.60;99.90
36924;DHT22;22841;50.252;18.688;2023-03-14T12:06:32;10.60;99.90
36924;DHT22;22841;50.252;18.688;2023-03-14T12:09:02;10.60;99.90
36924;DHT22;22841;50.252;18.688;2023-03-14T12:11:49;10.60;99.90
36924;DHT22;22841;50.252;18.688;2023-03-14T12:16:47;10.60;99.90
36924;DHT22;22841;50.252;18.688;2023-03-14T12:22:08;10.50;99.90
36924;DHT22;22841;50.252;18.688;2023-03-14T12:24:39;10.50;99.90
36924;DHT22;22841;50.252;18.688;2023-03-14T12:27:13;10.50;99.90
36924;DHT22;22841;50.252;18.688;2023-03-14T12:30:00;10.50;99.90
36924;DHT22;22841;50.252;18.688;2023-03-14T12:32:26;10.60;99.90
36924;DHT22;22841;50.252;18.688;2023-03-14T12:34:52;10.60;99.90
36924;DHT22;22841;50.252;18.688;2023-03-14T12:37:28;10.70;99.90
36924;DHT22;22841;50.252;18.688;2023-03-14T12:40:13;10.70;99.90
36924;DHT22;22841;50.252;18.688;2023-03-14T12:42:56;10.80;99.90
36924;DHT22;22841;50.252;18.688;2023-03-14T12:45:30;10.80;99.90
36924;DHT22;22841;50.252;18.688;2023-03-14T12:48:23;10.80;99.90
36924;DHT22;22841;50.252;18.688;2023-03-14T12:50:55;10.80;99.90
36924;DHT22;22841;50.252;18.688;2023-03-14T12:56:23;10.70;99.90
36924;DHT22;22841;50.252;18.688;2023-03-14T13:01:22;10.60;99.90
36924;DHT22;22841;50.252;18.688;2023-03-14T13:03:55;10.60;99.90
36924;DHT22;22841;50.252;18.688;2023-03-14T13:06:57;10.50;99.90
36924;DHT22;22841;50.252;18.688;2023-03-14T13:11:58;10.40;99.90
36924;DHT22;22841;50.252;18.688;2023-03-14T13:14:28;10.50;99.90
36924;DHT22;22841;50.252;18.688;2023-03-14T13:16:55;10.40;99.90
36924;DHT22;22841;50.252;18.688;2023-03-14T13:19:26;10.40;99.90
36924;DHT22;22841;50.252;18.688;2023-03-14T13:22:03;10.40;99.90
36924;DHT22;22841;50.252;18.688;2023-03-14T13:24:33;10.40;99.90
36924;DHT22;22841;50.252;18.688;2023-03-14T13:27:00;10.40;99.90
36924;DHT22;22841;50.252;18.688;2023-03-14T13:29:32;10.30;99.90
36924;DHT22;22841;50.252;18.688;2023-03-14T13:32:19;10.30;99.90
36924;DHT22;22841;50.252;18.688;2023-03-14T13:34:46;10.20;99.90
36924;DHT22;22841;50.252;18.688;2023-03-14T13:37:20;10.30;99.90
36924;DHT22;22841;50.252;18.688;2023-03-14T13:39:53;10.20;99.90
36924;DHT22;22841;50.252;18.688;2023-03-14T13:42:25;10.20;99.90
36924;DHT22;22841;50.252;18.688;2023-03-14T13:44:53;10.20;99.90
36924;DHT22;22841;50.252;18.688;2023-03-14T13:47:23;10.20;99.90
36924;DHT22;22841;50.252;18.688;2023-03-14T13:49:50;10.10;99.90
36924;DHT22;22841;50.252;18.688;2023-03-14T13:52:32;10.10;99.90
36924;DHT22;22841;50.252;18.688;2023-03-14T13:55:02;10.10;99.90
36924;DHT22;22841;50.252;18.688;2023-03-14T13:57:50;10.00;99.90
36924;DHT22;22841;50.252;18.688;2023-03-14T14:00:25;10.10;99.90
36924;DHT22;22841;50.252;18.688;2023-03-14T14:02:57;10.00;99.90
36924;DHT22;22841;50.252;18.688;2023-03-14T14:05:26;10.00;99.90
36924;DHT22;22841;50.252;18.688;2023-03-14T14:07:53;9.90;99.90
36924;DHT22;22841;50.252;18.688;2023-03-14T14:10:21;9.90;99.90
36924;DHT22;22841;50.252;18.688;2023-03-14T14:12:53;9.90;99.90
36924;DHT22;22841;50.252;18.688;2023-03-14T14:15:23;9.90;99.90
36924;DHT22;22841;50.252;18.688;2023-03-14T14:17:52;9.90;99.90
36924;DHT22;22841;50.252;18.688;2023-03-14T14:20:30;9.90;99.90
36924;DHT22;22841;50.252;18.688;2023-03-14T14:23:24;9.80;99.90
36924;DHT22;22841;50.252;18.688;2023-03-14T14:25:58;9.80;99.90
36924;DHT22;22841;50.252;18.688;2023-03-14T14:33:55;9.80;99.90
36924;DHT22;22841;50.252;18.688;2023-03-14T14:36:36;9.80;99.90
36924;DHT22;22841;50.252;18.688;2023-03-14T14:41:35;9.90;99.90
36924;DHT22;22841;50.252;18.688;2023-03-14T14:44:05;9.80;99.90
36924;DHT22;22841;50.252;18.688;2023-03-14T14:46:33;9.80;99.90
36924;DHT22;22841;50.252;18.688;2023-03-14T14:49:12;9.80;99.90
36924;DHT22;22841;50.252;18.688;2023-03-14T14:51:50;9.70;99.90
36924;DHT22;22841;50.252;18.688;2023-03-14T14:54:18;9.80;99.90
36924;DHT22;22841;50.252;18.688;2023-03-14T14:56:52;9.80;99.90
36924;DHT22;22841;50.252;18.688;2023-03-14T14:59:26;9.80;99.90
36924;DHT22;22841;50.252;18.688;2023-03-14T15:02:01;9.80;99.90
36924;DHT22;22841;50.252;18.688;2023-03-14T15:04:32;9.80;99.90
36924;DHT22;22841;50.252;18.688;2023-03-14T15:06:58;9.80;99.90
36924;DHT22;22841;50.252;18.688;2023-03-14T15:09:24;9.80;99.90
36924;DHT22;22841;50.252;18.688;2023-03-14T15:11:50;9.80;99.90
36924;DHT22;22841;50.252;18.688;2023-03-14T15:14:16;9.70;99.90
36924;DHT22;22841;50.252;18.688;2023-03-14T15:16:42;9.80;99.90
36924;DHT22;22841;50.252;18.688;2023-03-14T15:19:21;9.80;99.90
36924;DHT22;22841;50.252;18.688;2023-03-14T15:21:49;9.90;99.90
36924;DHT22;22841;50.252;18.688;2023-03-14T15:24:15;9.80;99.90
36924;DHT22;22841;50.252;18.688;2023-03-14T15:26:41;9.80;99.90
36924;DHT22;22841;50.252;18.688;2023-03-14T15:29:11;9.80;99.90
36924;DHT22;22841;50.252;18.688;2023-03-14T15:31:39;9.80;99.90
36924;DHT22;22841;50.252;18.688;2023-03-14T15:34:05;9.80;99.90
36924;DHT22;22841;50.252;18.688;2023-03-14T15:36:33;9.90;99.90
36924;DHT22;22841;50.252;18.688;2023-03-14T15:39:00;9.90;99.90
36924;DHT22;22841;50.252;18.688;2023-03-14T15:41:27;9.80;99.90
36924;DHT22;22841;50.252;18.688;2023-03-14T15:43:53;9.90;99.90
36924;DHT22;22841;50.252;18.688;2023-03-14T15:46:20;9.80;99.90
36924;DHT22;22841;50.252;18.688;2023-03-14T15:48:49;9.90;99.90
36924;DHT22;22841;50.252;18.688;2023-03-14T15:51:16;9.80;99.90
36924;DHT22;22841;50.252;18.688;2023-03-14T15:53:43;9.80;99.90
36924;DHT22;22841;50.252;18.688;2023-03-14T15:56:13;9.80;99.90
36924;DHT22;22841;50.252;18.688;2023-03-14T15:58:40;9.80;99.90
36924;DHT22;22841;50.252;18.688;2023-03-14T16:01:08;9.80;99.90
36924;DHT22;22841;50.252;18.688;2023-03-14T16:03:37;9.90;99.90
36924;DHT22;22841;50.252;18.688;2023-03-14T16:06:04;9.90;99.90
36924;DHT22;22841;50.252;18.688;2023-03-14T16:08:30;9.90;99.90
36924;DHT22;22841;50.252;18.688;2023-03-14T16:10:58;9.90;99.90
36924;DHT22;22841;50.252;18.688;2023-03-14T16:13:25;9.90;99.90
36924;DHT22;22841;50.252;18.688;2023-03-14T16:15:59;10.00;99.90
36924;DHT22;22841;50.252;18.688;2023-03-14T16:18:28;10.00;99.90
36924;DHT22;22841;50.252;18.688;2023-03-14T16:20:56;10.00;99.90
36924;DHT22;22841;50.252;18.688;2023-03-14T16:23:23;10.00;99.90